Terminal Aerodrome Forecast
Issued by NWS Missoula, MT

Home | Current Version | Previous Version | Text Only | Print | Product List | Glossary On
Versions: 1 2 3 4 5 6 7 8 9 10 11 12 13 14 15 16 17 18 19 20 21 22 23 24 25 26 27 28 29 30
000
FTUS45 KMSO 220520
TAFMSO
TAF
KMSO 220520Z 2206/2306 34007KT P6SM VCSH OVC060
     FM220800 34006KT P6SM -SHSN BKN040 OVC060
     FM221100 VRB05KT P6SM VCSH BKN040
     FM221800 31007KT P6SM BKN040=

USA.gov is the U.S. government's official web portal to all federal, state and local government web resources and services.